Weather History for Pittsfield, IL

Change the Weather History Date:

Monday, September 16, 2013

  Actual Average (KUIN) Record (KUIN)
Temperature  
Mean Temperature 63 °F 66 °F  
Max Temperature 69 °F 77 °F 99 °F (1927)
Min Temperature 57 °F 56 °F 41 °F (1984)
Degree Days  
Heating Degree Days 2 2  
Month to date heating degree days 20  
Since 1 July heating degree days 25  
Cooling Degree Days 0 4  
Month to date cooling degree days 88  
Year to date cooling degree days 1041  
Growing Degree Days 13 (Base 50)    
Moisture  
Dew Point 55 °F    
Average Humidity 78    
Maximum Humidity 90    
Minimum Humidity 59    
Precipitation  
Precipitation 0.05 in 0.10 in 2.95 in (1978)
Month to date precipitation 1.75  
Year to date precipitation 27.50  
Sea Level Pressure  
Sea Level Pressure 30.26 in    
Wind  
Wind Speed 7 mph (ENE)    
Max Wind Speed 13 mph    
Max Gust Speed 20 mph    
Visibility 10 miles    
Events      
T = Trace of Precipitation, MM = Missing Value Source: NWS Daily Summary

Daily Weather History Graph

Daily Weather History Graph

Search for Another Location

Airport:

Trip Planner

Search our weather history database for the weather conditions in past years. The results will help you decide how hot, cold, wet, or windy it might be!

Date:

Astronomy

Sep. 16, 2013 Rise Set
Actual Time 6:45 AM CDT 7:09 PM CDT
Civil Twilight 6:18 AM CDT 7:36 PM CDT
Nautical Twilight 5:46 AM CDT 8:08 PM CDT
Astronomical Twilight 5:14 AM CDT 8:40 PM CDT
Moon 5:18 PM CDT (9/16) 3:32 AM CDT (9/16)
Length of Visible Light 13h 18m
Length of Day
12h 24m
Waxing Gibbous, 90% of the Moon is Illuminated
Sep 16
Waxing Gibbous
Sep 19
Full
Sep 26
Last Quarter
Oct 4
New
Oct 11
First Quarter

Hourly Weather History & Observations

Time (CDT) Temp. Dew Point Humidity Pressure Visibility Wind Dir Wind Speed Gust Speed Precip Events Conditions
12:15 AM 61.2 °F 58.1 °F 90% 30.18 in 10.0 mi North 8.1 mph - N/A   Overcast
12:35 AM 60.8 °F 57.4 °F 88% 30.18 in 10.0 mi North 5.8 mph - N/A   Overcast
12:55 AM 60.8 °F 57.6 °F 89% 30.18 in 10.0 mi NNE 5.8 mph - N/A   Overcast
1:15 AM 60.8 °F 56.8 °F 87% 30.18 in 10.0 mi NNE 9.2 mph - N/A   Overcast
1:35 AM 60.3 °F 56.3 °F 87% 30.18 in 10.0 mi NNE 6.9 mph - N/A   Overcast
1:55 AM 59.9 °F 55.8 °F 86% 30.18 in 10.0 mi NNE 9.2 mph - N/A   Overcast
2:15 AM 59.7 °F 55.0 °F 84% 30.19 in 10.0 mi NE 10.4 mph - N/A   Overcast
2:55 AM 58.1 °F 54.0 °F 86% 30.19 in 10.0 mi NNE 3.5 mph - N/A   Scattered Clouds
3:15 AM 57.4 °F 54.1 °F 89% 30.19 in 10.0 mi NNE 3.5 mph - N/A   Scattered Clouds
3:35 AM 58.1 °F 54.5 °F 88% 30.19 in 10.0 mi NNE 4.6 mph - N/A   Overcast
3:55 AM 58.1 °F 54.5 °F 88% 30.20 in 10.0 mi NE 9.2 mph - N/A   Overcast
4:15 AM 58.1 °F 54.5 °F 88% 30.21 in 10.0 mi NE 9.2 mph - N/A   Overcast
4:35 AM 58.3 °F 54.5 °F 87% 30.22 in 10.0 mi NE 5.8 mph - N/A   Overcast
4:55 AM 58.8 °F 54.5 °F 86% 30.23 in 10.0 mi NE 8.1 mph - N/A   Overcast
5:35 AM 59.0 °F 54.9 °F 86% 30.24 in 10.0 mi NE 8.1 mph - N/A   Overcast
5:55 AM 59.0 °F 54.7 °F 86% 30.25 in 10.0 mi NE 4.6 mph - N/A   Overcast
6:15 AM 59.0 °F 54.7 °F 86% 30.25 in 10.0 mi NE 3.5 mph - N/A   Overcast
6:35 AM 59.2 °F 54.9 °F 86% 30.25 in 10.0 mi NE 3.5 mph - N/A   Overcast
6:55 AM 59.2 °F 55.0 °F 86% 30.26 in 10.0 mi NE 5.8 mph - N/A   Overcast
7:15 AM 59.4 °F 55.4 °F 87% 30.26 in 10.0 mi NE 4.6 mph - N/A   Overcast
7:35 AM 59.5 °F 55.6 °F 87% 30.28 in 10.0 mi NE 9.2 mph - N/A   Overcast
7:55 AM 59.5 °F 55.4 °F 86% 30.28 in 7.0 mi ENE 9.2 mph - N/A   Overcast
8:15 AM 59.5 °F 55.6 °F 87% 30.28 in 10.0 mi NE 6.9 mph - N/A   Overcast
8:35 AM 60.4 °F 55.8 °F 85% 30.28 in 10.0 mi ENE 6.9 mph - N/A   Overcast
8:55 AM 60.8 °F 56.3 °F 85% 30.29 in 10.0 mi NE 8.1 mph - N/A   Overcast
9:15 AM 61.2 °F 55.4 °F 81% 30.29 in 10.0 mi ENE 12.7 mph 19.6 mph N/A   Overcast
9:35 AM 61.3 °F 55.4 °F 81% 30.30 in 10.0 mi ENE 10.4 mph 17.3 mph N/A   Overcast
9:55 AM 62.1 °F 55.6 °F 79% 30.31 in 10.0 mi East 6.9 mph - N/A   Overcast
10:15 AM 63.7 °F 55.8 °F 75% 30.31 in 10.0 mi East 8.1 mph - N/A   Overcast
10:35 AM 64.0 °F 55.4 °F 73% 30.31 in 10.0 mi East 6.9 mph - N/A   Overcast
10:55 AM 63.5 °F 55.6 °F 75% 30.32 in 10.0 mi ENE 8.1 mph - N/A   Overcast
11:15 AM 63.7 °F 55.8 °F 75% 30.32 in 10.0 mi ENE 6.9 mph - N/A   Overcast
11:35 AM 63.9 °F 55.6 °F 74% 30.33 in 10.0 mi East 6.9 mph - N/A   Overcast
11:55 AM 64.9 °F 55.6 °F 72% 30.32 in 10.0 mi ENE 9.2 mph - N/A   Overcast
12:15 PM 65.3 °F 55.8 °F 71% 30.32 in 10.0 mi ENE 9.2 mph - N/A   Overcast
12:35 PM 66.6 °F 56.8 °F 71% 30.32 in 10.0 mi ENE 6.9 mph - N/A   Overcast
12:55 PM 67.5 °F 55.8 °F 66% 30.32 in 10.0 mi ENE 5.8 mph - N/A   Overcast
1:15 PM 67.3 °F 55.2 °F 65% 30.31 in 10.0 mi ENE 6.9 mph - N/A   Overcast
1:35 PM 68.4 °F 55.4 °F 63% 30.31 in 10.0 mi ENE 8.1 mph - N/A   Overcast
1:55 PM 69.3 °F 55.8 °F 62% 30.30 in 10.0 mi ENE 9.2 mph - N/A   Overcast
2:15 PM 67.3 °F 56.5 °F 68% 30.30 in 10.0 mi NE 10.4 mph - N/A   Overcast
2:35 PM 67.3 °F 56.8 °F 69% 30.29 in 10.0 mi North 8.1 mph - N/A   Overcast
2:55 PM 68.0 °F 56.5 °F 67% 30.28 in 10.0 mi NE 8.1 mph - N/A   Overcast
3:15 PM 68.2 °F 56.7 °F 67% 30.28 in 10.0 mi ENE 9.2 mph - N/A   Overcast
3:35 PM 68.0 °F 56.1 °F 66% 30.28 in 10.0 mi East 8.1 mph - N/A   Overcast
3:55 PM 68.4 °F 55.0 °F 62% 30.27 in 10.0 mi ENE 8.1 mph - N/A   Overcast
4:15 PM 68.5 °F 53.8 °F 59% 30.28 in 10.0 mi ENE 6.9 mph - N/A   Mostly Cloudy
4:35 PM 68.0 °F 53.1 °F 59% 30.27 in 10.0 mi ENE 6.9 mph - N/A   Mostly Cloudy
4:55 PM 68.5 °F 53.8 °F 59% 30.27 in 10.0 mi East 6.9 mph - N/A   Overcast
5:15 PM 68.4 °F 54.5 °F 61% 30.26 in 10.0 mi ENE 4.6 mph - N/A   Overcast
5:35 PM 68.0 °F 54.7 °F 62% 30.25 in 10.0 mi ENE 4.6 mph - N/A   Overcast
5:55 PM 67.5 °F 55.2 °F 65% 30.26 in 10.0 mi East 3.5 mph - N/A   Scattered Clouds
6:15 PM 67.3 °F 55.2 °F 65% 30.25 in 10.0 mi East 4.6 mph - N/A   Clear
6:35 PM 66.2 °F 55.2 °F 68% 30.25 in 10.0 mi East 3.5 mph - N/A   Clear
6:55 PM 63.1 °F 56.3 °F 78% 30.25 in 10.0 mi Calm Calm - N/A   Clear
7:15 PM 61.7 °F 55.9 °F 81% 30.24 in 10.0 mi Calm Calm - N/A   Clear
7:35 PM 60.3 °F 55.4 °F 84% 30.24 in 10.0 mi NE 3.5 mph - N/A   Clear
7:55 PM 60.3 °F 55.0 °F 83% 30.24 in 10.0 mi ENE 3.5 mph - N/A   Clear
8:15 PM 59.4 °F 54.7 °F 84% 30.25 in 10.0 mi Calm Calm - N/A   Clear
8:35 PM 59.0 °F 54.7 °F 86% 30.25 in 10.0 mi East 3.5 mph - N/A   Clear
8:55 PM 59.9 °F 54.9 °F 83% 30.25 in 7.0 mi East 3.5 mph - N/A   Clear
9:15 PM 59.4 °F 54.5 °F 84% 30.25 in 7.0 mi East 3.5 mph - N/A   Clear
9:35 PM 59.0 °F 53.8 °F 83% 30.26 in 10.0 mi East 4.6 mph - N/A   Clear
9:55 PM 58.6 °F 53.6 °F 83% 30.27 in 10.0 mi East 3.5 mph - N/A   Clear
10:15 PM 58.3 °F 53.2 °F 83% 30.27 in 10.0 mi East 3.5 mph - N/A   Clear
10:35 PM 58.1 °F 53.6 °F 85% 30.27 in 10.0 mi Calm Calm - N/A   Clear
10:55 PM 58.1 °F 53.6 °F 85% 30.28 in 10.0 mi East 3.5 mph - N/A   Clear
11:15 PM 58.1 °F 53.2 °F 84% 30.28 in 10.0 mi East 4.6 mph - N/A   Clear
11:35 PM 57.7 °F 53.1 °F 84% 30.28 in 10.0 mi East 4.6 mph - N/A   Clear
11:55 PM 57.2 °F 52.7 °F 85% 30.28 in 10.0 mi East 3.5 mph - N/A   Clear